sensor_id;sensor_type;location;lat;lon;timestamp;temperature;humidity
3488;DHT22;38546;48.170;11.724;2023-12-29T00:02:28;9.40;99.90
3488;DHT22;38546;48.170;11.724;2023-12-29T00:05:18;9.30;99.90
3488;DHT22;38546;48.170;11.724;2023-12-29T00:08:07;9.20;99.90
3488;DHT22;38546;48.170;11.724;2023-12-29T00:10:56;9.10;99.90
3488;DHT22;38546;48.170;11.724;2023-12-29T00:13:45;9.00;99.90
3488;DHT22;38546;48.170;11.724;2023-12-29T00:16:34;8.90;99.90
3488;DHT22;38546;48.170;11.724;2023-12-29T00:19:23;8.80;99.90
3488;DHT22;38546;48.170;11.724;2023-12-29T00:22:13;8.80;99.90
3488;DHT22;38546;48.170;11.724;2023-12-29T00:25:02;8.70;99.90
3488;DHT22;38546;48.170;11.724;2023-12-29T00:27:52;8.60;99.90
3488;DHT22;38546;48.170;11.724;2023-12-29T00:30:41;8.60;99.90
3488;DHT22;38546;48.170;11.724;2023-12-29T00:33:30;8.50;99.90
3488;DHT22;38546;48.170;11.724;2023-12-29T00:36:21;8.40;99.90
3488;DHT22;38546;48.170;11.724;2023-12-29T00:39:10;8.30;99.90
3488;DHT22;38546;48.170;11.724;2023-12-29T00:42:01;8.20;99.90
3488;DHT22;38546;48.170;11.724;2023-12-29T00:44:51;8.20;99.90
3488;DHT22;38546;48.170;11.724;2023-12-29T00:47:40;8.10;99.90
3488;DHT22;38546;48.170;11.724;2023-12-29T00:50:29;8.10;99.90
3488;DHT22;38546;48.170;11.724;2023-12-29T00:53:18;8.00;99.90
3488;DHT22;38546;48.170;11.724;2023-12-29T00:56:11;7.90;99.90
3488;DHT22;38546;48.170;11.724;2023-12-29T00:59:00;7.90;99.90
3488;DHT22;38546;48.170;11.724;2023-12-29T01:01:50;7.90;99.90
3488;DHT22;38546;48.170;11.724;2023-12-29T01:04:39;7.90;99.90
3488;DHT22;38546;48.170;11.724;2023-12-29T01:07:29;7.80;99.90
3488;DHT22;38546;48.170;11.724;2023-12-29T01:10:18;7.80;99.90
3488;DHT22;38546;48.170;11.724;2023-12-29T01:13:07;7.70;99.90
3488;DHT22;38546;48.170;11.724;2023-12-29T01:15:57;7.70;99.90
3488;DHT22;38546;48.170;11.724;2023-12-29T01:18:46;7.60;99.90
3488;DHT22;38546;48.170;11.724;2023-12-29T01:21:38;7.60;99.90
3488;DHT22;38546;48.170;11.724;2023-12-29T01:24:27;7.50;99.90
3488;DHT22;38546;48.170;11.724;2023-12-29T01:27:16;7.50;99.90
3488;DHT22;38546;48.170;11.724;2023-12-29T01:30:06;7.40;99.90
3488;DHT22;38546;48.170;11.724;2023-12-29T01:32:56;7.40;99.90
3488;DHT22;38546;48.170;11.724;2023-12-29T01:35:45;7.30;99.90
3488;DHT22;38546;48.170;11.724;2023-12-29T01:38:34;7.40;99.90
3488;DHT22;38546;48.170;11.724;2023-12-29T01:41:24;7.30;99.90
3488;DHT22;38546;48.170;11.724;2023-12-29T01:44:21;7.30;99.90
3488;DHT22;38546;48.170;11.724;2023-12-29T01:47:14;7.30;99.90
3488;DHT22;38546;48.170;11.724;2023-12-29T01:50:05;7.30;99.90
3488;DHT22;38546;48.170;11.724;2023-12-29T01:52:55;7.20;99.90
3488;DHT22;38546;48.170;11.724;2023-12-29T01:55:46;7.20;99.90
3488;DHT22;38546;48.170;11.724;2023-12-29T01:58:36;7.20;99.90
3488;DHT22;38546;48.170;11.724;2023-12-29T02:01:26;7.20;99.90
3488;DHT22;38546;48.170;11.724;2023-12-29T02:04:17;7.20;99.90
3488;DHT22;38546;48.170;11.724;2023-12-29T02:07:07;7.20;99.90
3488;DHT22;38546;48.170;11.724;2023-12-29T02:10:00;7.20;99.90
3488;DHT22;38546;48.170;11.724;2023-12-29T02:12:50;7.30;99.90
3488;DHT22;38546;48.170;11.724;2023-12-29T02:15:40;7.30;99.90
3488;DHT22;38546;48.170;11.724;2023-12-29T02:18:30;7.30;99.90
3488;DHT22;38546;48.170;11.724;2023-12-29T02:21:25;7.30;99.90
3488;DHT22;38546;48.170;11.724;2023-12-29T02:24:15;7.20;99.90
3488;DHT22;38546;48.170;11.724;2023-12-29T02:27:43;7.10;99.90
3488;DHT22;38546;48.170;11.724;2023-12-29T02:30:41;7.10;99.90
3488;DHT22;38546;48.170;11.724;2023-12-29T02:33:37;7.00;99.90
3488;DHT22;38546;48.170;11.724;2023-12-29T02:36:28;7.00;99.90
3488;DHT22;38546;48.170;11.724;2023-12-29T02:39:18;6.90;99.90
3488;DHT22;38546;48.170;11.724;2023-12-29T02:42:08;6.90;99.90
3488;DHT22;38546;48.170;11.724;2023-12-29T02:44:57;6.80;99.90
3488;DHT22;38546;48.170;11.724;2023-12-29T02:47:47;6.80;99.90
3488;DHT22;38546;48.170;11.724;2023-12-29T02:50:37;6.70;99.90
3488;DHT22;38546;48.170;11.724;2023-12-29T02:53:26;6.70;99.90
3488;DHT22;38546;48.170;11.724;2023-12-29T02:56:15;6.70;99.90
3488;DHT22;38546;48.170;11.724;2023-12-29T02:59:05;6.60;99.90
3488;DHT22;38546;48.170;11.724;2023-12-29T03:01:54;6.60;99.90
3488;DHT22;38546;48.170;11.724;2023-12-29T03:04:43;6.50;99.90
3488;DHT22;38546;48.170;11.724;2023-12-29T03:07:32;6.50;99.90
3488;DHT22;38546;48.170;11.724;2023-12-29T03:10:22;6.50;99.90
3488;DHT22;38546;48.170;11.724;2023-12-29T03:13:11;6.40;99.90
3488;DHT22;38546;48.170;11.724;2023-12-29T03:16:01;6.40;99.90
3488;DHT22;38546;48.170;11.724;2023-12-29T03:18:50;6.40;99.90
3488;DHT22;38546;48.170;11.724;2023-12-29T03:21:39;6.40;99.90
3488;DHT22;38546;48.170;11.724;2023-12-29T03:24:29;6.40;99.90
3488;DHT22;38546;48.170;11.724;2023-12-29T03:27:19;6.40;99.90
3488;DHT22;38546;48.170;11.724;2023-12-29T03:30:09;6.50;99.90
3488;DHT22;38546;48.170;11.724;2023-12-29T03:32:59;6.50;99.90
3488;DHT22;38546;48.170;11.724;2023-12-29T03:35:48;6.50;99.90
3488;DHT22;38546;48.170;11.724;2023-12-29T03:38:38;6.50;99.90
3488;DHT22;38546;48.170;11.724;2023-12-29T03:41:27;6.50;99.90
3488;DHT22;38546;48.170;11.724;2023-12-29T03:44:16;6.50;99.90
3488;DHT22;38546;48.170;11.724;2023-12-29T03:47:06;6.40;99.90
3488;DHT22;38546;48.170;11.724;2023-12-29T03:49:55;6.40;99.90
3488;DHT22;38546;48.170;11.724;2023-12-29T03:52:47;6.30;99.90
3488;DHT22;38546;48.170;11.724;2023-12-29T03:55:36;6.30;99.90
3488;DHT22;38546;48.170;11.724;2023-12-29T03:58:26;6.20;99.90
3488;DHT22;38546;48.170;11.724;2023-12-29T04:01:17;6.20;99.90
3488;DHT22;38546;48.170;11.724;2023-12-29T04:04:07;6.20;99.90
3488;DHT22;38546;48.170;11.724;2023-12-29T04:06:56;6.20;99.90
3488;DHT22;38546;48.170;11.724;2023-12-29T04:09:45;6.30;99.90
3488;DHT22;38546;48.170;11.724;2023-12-29T04:12:34;6.30;99.90
3488;DHT22;38546;48.170;11.724;2023-12-29T04:15:24;6.40;99.90
3488;DHT22;38546;48.170;11.724;2023-12-29T04:18:13;6.40;99.90
3488;DHT22;38546;48.170;11.724;2023-12-29T04:21:03;6.40;99.90
3488;DHT22;38546;48.170;11.724;2023-12-29T04:23:53;6.50;99.90
3488;DHT22;38546;48.170;11.724;2023-12-29T04:26:42;6.50;99.90
3488;DHT22;38546;48.170;11.724;2023-12-29T04:29:31;6.60;99.90
3488;DHT22;38546;48.170;11.724;2023-12-29T04:32:21;6.60;99.90
3488;DHT22;38546;48.170;11.724;2023-12-29T04:35:10;6.70;99.90
3488;DHT22;38546;48.170;11.724;2023-12-29T04:38:01;6.70;99.90
3488;DHT22;38546;48.170;11.724;2023-12-29T04:40:50;6.80;99.90
3488;DHT22;38546;48.170;11.724;2023-12-29T04:43:40;6.80;99.90
3488;DHT22;38546;48.170;11.724;2023-12-29T04:46:29;6.90;99.90
3488;DHT22;38546;48.170;11.724;2023-12-29T04:49:18;6.90;99.90
3488;DHT22;38546;48.170;11.724;2023-12-29T04:52:07;6.90;99.90
3488;DHT22;38546;48.170;11.724;2023-12-29T04:54:57;6.90;99.90
3488;DHT22;38546;48.170;11.724;2023-12-29T04:57:46;6.90;99.90
3488;DHT22;38546;48.170;11.724;2023-12-29T05:00:35;7.00;99.90
3488;DHT22;38546;48.170;11.724;2023-12-29T05:03:25;7.00;99.90
3488;DHT22;38546;48.170;11.724;2023-12-29T05:06:14;7.00;99.90
3488;DHT22;38546;48.170;11.724;2023-12-29T05:09:03;7.00;99.90
3488;DHT22;38546;48.170;11.724;2023-12-29T05:11:52;7.00;99.90
3488;DHT22;38546;48.170;11.724;2023-12-29T05:14:42;7.10;99.90
3488;DHT22;38546;48.170;11.724;2023-12-29T05:17:31;7.10;99.90
3488;DHT22;38546;48.170;11.724;2023-12-29T05:20:20;7.10;99.90
3488;DHT22;38546;48.170;11.724;2023-12-29T05:23:09;7.20;99.90
3488;DHT22;38546;48.170;11.724;2023-12-29T05:25:59;7.20;99.90
3488;DHT22;38546;48.170;11.724;2023-12-29T05:28:48;7.20;99.90
3488;DHT22;38546;48.170;11.724;2023-12-29T05:31:37;7.20;99.90
3488;DHT22;38546;48.170;11.724;2023-12-29T05:34:26;7.20;99.90
3488;DHT22;38546;48.170;11.724;2023-12-29T05:37:15;7.20;99.90
3488;DHT22;38546;48.170;11.724;2023-12-29T05:40:05;7.20;99.90
3488;DHT22;38546;48.170;11.724;2023-12-29T05:42:55;7.30;99.90
3488;DHT22;38546;48.170;11.724;2023-12-29T05:45:44;7.40;99.90
3488;DHT22;38546;48.170;11.724;2023-12-29T05:48:33;7.80;99.90
3488;DHT22;38546;48.170;11.724;2023-12-29T05:51:22;8.20;99.90
3488;DHT22;38546;48.170;11.724;2023-12-29T05:54:11;8.50;99.90
3488;DHT22;38546;48.170;11.724;2023-12-29T05:57:00;8.80;99.90
3488;DHT22;38546;48.170;11.724;2023-12-29T05:59:49;8.70;99.90
3488;DHT22;38546;48.170;11.724;2023-12-29T06:02:38;8.90;99.90
3488;DHT22;38546;48.170;11.724;2023-12-29T06:05:27;8.90;99.90
3488;DHT22;38546;48.170;11.724;2023-12-29T06:08:16;8.90;99.90
3488;DHT22;38546;48.170;11.724;2023-12-29T06:11:05;9.10;99.90
3488;DHT22;38546;48.170;11.724;2023-12-29T06:13:55;9.00;99.90
3488;DHT22;38546;48.170;11.724;2023-12-29T06:16:44;9.10;99.90
3488;DHT22;38546;48.170;11.724;2023-12-29T06:19:33;9.10;99.90
3488;DHT22;38546;48.170;11.724;2023-12-29T06:22:22;9.10;99.90
3488;DHT22;38546;48.170;11.724;2023-12-29T06:25:11;9.00;99.90
3488;DHT22;38546;48.170;11.724;2023-12-29T06:28:00;9.00;99.90
3488;DHT22;38546;48.170;11.724;2023-12-29T06:30:49;9.00;99.90
3488;DHT22;38546;48.170;11.724;2023-12-29T06:33:42;8.90;99.90
3488;DHT22;38546;48.170;11.724;2023-12-29T06:36:32;8.60;99.90
3488;DHT22;38546;48.170;11.724;2023-12-29T06:39:21;8.40;99.90
3488;DHT22;38546;48.170;11.724;2023-12-29T06:42:11;8.30;99.90
3488;DHT22;38546;48.170;11.724;2023-12-29T06:45:01;8.20;99.90
3488;DHT22;38546;48.170;11.724;2023-12-29T06:47:51;8.10;99.90
3488;DHT22;38546;48.170;11.724;2023-12-29T06:50:40;7.90;99.90
3488;DHT22;38546;48.170;11.724;2023-12-29T06:53:28;7.90;99.90
3488;DHT22;38546;48.170;11.724;2023-12-29T06:56:18;7.80;99.90
3488;DHT22;38546;48.170;11.724;2023-12-29T06:59:07;7.70;99.90
3488;DHT22;38546;48.170;11.724;2023-12-29T07:01:56;7.60;99.90
3488;DHT22;38546;48.170;11.724;2023-12-29T07:04:44;7.50;99.90
3488;DHT22;38546;48.170;11.724;2023-12-29T07:07:37;7.50;99.90
3488;DHT22;38546;48.170;11.724;2023-12-29T07:10:26;7.50;99.90
3488;DHT22;38546;48.170;11.724;2023-12-29T07:13:15;7.50;99.90
3488;DHT22;38546;48.170;11.724;2023-12-29T07:16:05;7.50;99.90
3488;DHT22;38546;48.170;11.724;2023-12-29T07:18:54;7.50;99.90
3488;DHT22;38546;48.170;11.724;2023-12-29T07:21:44;7.50;99.90
3488;DHT22;38546;48.170;11.724;2023-12-29T07:24:34;7.50;99.90
3488;DHT22;38546;48.170;11.724;2023-12-29T07:27:24;7.50;99.90
3488;DHT22;38546;48.170;11.724;2023-12-29T07:30:13;7.60;99.90
3488;DHT22;38546;48.170;11.724;2023-12-29T07:33:03;7.60;99.90
3488;DHT22;38546;48.170;11.724;2023-12-29T07:35:52;7.70;99.90
3488;DHT22;38546;48.170;11.724;2023-12-29T07:38:42;7.80;99.90
3488;DHT22;38546;48.170;11.724;2023-12-29T07:41:31;7.90;99.90
3488;DHT22;38546;48.170;11.724;2023-12-29T07:44:20;8.20;99.90
3488;DHT22;38546;48.170;11.724;2023-12-29T07:47:09;8.40;99.90
3488;DHT22;38546;48.170;11.724;2023-12-29T07:50:00;8.90;99.90
3488;DHT22;38546;48.170;11.724;2023-12-29T07:52:50;8.90;99.90
3488;DHT22;38546;48.170;11.724;2023-12-29T07:55:39;9.10;99.90
3488;DHT22;38546;48.170;11.724;2023-12-29T07:58:29;9.20;99.90
3488;DHT22;38546;48.170;11.724;2023-12-29T08:01:18;9.30;99.90
3488;DHT22;38546;48.170;11.724;2023-12-29T08:04:07;9.40;99.90
3488;DHT22;38546;48.170;11.724;2023-12-29T08:06:56;9.50;99.90
3488;DHT22;38546;48.170;11.724;2023-12-29T08:09:45;9.50;99.90
3488;DHT22;38546;48.170;11.724;2023-12-29T08:12:35;9.60;99.90
3488;DHT22;38546;48.170;11.724;2023-12-29T08:15:28;9.50;99.90
3488;DHT22;38546;48.170;11.724;2023-12-29T08:18:17;9.60;99.90
3488;DHT22;38546;48.170;11.724;2023-12-29T08:21:07;9.60;99.90
3488;DHT22;38546;48.170;11.724;2023-12-29T08:23:56;9.60;99.90
3488;DHT22;38546;48.170;11.724;2023-12-29T08:26:45;9.70;99.90
3488;DHT22;38546;48.170;11.724;2023-12-29T08:29:36;9.70;99.90
3488;DHT22;38546;48.170;11.724;2023-12-29T08:32:25;9.80;99.90
3488;DHT22;38546;48.170;11.724;2023-12-29T08:35:15;9.80;99.90
3488;DHT22;38546;48.170;11.724;2023-12-29T08:38:04;9.80;99.90
3488;DHT22;38546;48.170;11.724;2023-12-29T08:40:53;9.80;99.90
3488;DHT22;38546;48.170;11.724;2023-12-29T08:43:42;9.80;99.90
3488;DHT22;38546;48.170;11.724;2023-12-29T08:46:31;9.80;99.90
3488;DHT22;38546;48.170;11.724;2023-12-29T08:49:21;9.80;99.90
3488;DHT22;38546;48.170;11.724;2023-12-29T08:52:10;9.90;99.90
3488;DHT22;38546;48.170;11.724;2023-12-29T08:54:59;9.80;99.90
3488;DHT22;38546;48.170;11.724;2023-12-29T08:57:49;9.80;99.90
3488;DHT22;38546;48.170;11.724;2023-12-29T09:00:38;9.80;99.90
3488;DHT22;38546;48.170;11.724;2023-12-29T09:03:27;9.90;99.90
3488;DHT22;38546;48.170;11.724;2023-12-29T09:06:16;9.80;99.90
3488;DHT22;38546;48.170;11.724;2023-12-29T09:09:05;9.70;99.90
3488;DHT22;38546;48.170;11.724;2023-12-29T09:11:55;9.60;99.90
3488;DHT22;38546;48.170;11.724;2023-12-29T09:14:44;9.60;99.90
3488;DHT22;38546;48.170;11.724;2023-12-29T09:17:34;9.60;99.90
3488;DHT22;38546;48.170;11.724;2023-12-29T09:20:23;9.60;99.90
3488;DHT22;38546;48.170;11.724;2023-12-29T09:23:13;9.60;99.90
3488;DHT22;38546;48.170;11.724;2023-12-29T09:26:02;9.60;99.90
3488;DHT22;38546;48.170;11.724;2023-12-29T09:28:52;9.70;99.90
3488;DHT22;38546;48.170;11.724;2023-12-29T09:31:41;9.90;99.90
3488;DHT22;38546;48.170;11.724;2023-12-29T09:34:31;9.90;99.90
3488;DHT22;38546;48.170;11.724;2023-12-29T09:37:21;10.00;99.90
3488;DHT22;38546;48.170;11.724;2023-12-29T09:40:11;10.00;99.90
3488;DHT22;38546;48.170;11.724;2023-12-29T09:43:03;10.00;99.90
3488;DHT22;38546;48.170;11.724;2023-12-29T09:45:55;10.00;99.90
3488;DHT22;38546;48.170;11.724;2023-12-29T09:48:47;10.00;99.90
3488;DHT22;38546;48.170;11.724;2023-12-29T09:51:41;10.00;99.90
3488;DHT22;38546;48.170;11.724;2023-12-29T09:54:31;10.00;99.90
3488;DHT22;38546;48.170;11.724;2023-12-29T09:57:21;10.00;99.90
3488;DHT22;38546;48.170;11.724;2023-12-29T10:00:12;10.20;99.90
3488;DHT22;38546;48.170;11.724;2023-12-29T10:03:05;10.10;99.90
3488;DHT22;38546;48.170;11.724;2023-12-29T10:05:56;10.10;99.90
3488;DHT22;38546;48.170;11.724;2023-12-29T10:08:50;10.20;99.90
3488;DHT22;38546;48.170;11.724;2023-12-29T10:11:40;10.20;99.90
3488;DHT22;38546;48.170;11.724;2023-12-29T10:14:36;10.20;99.90
3488;DHT22;38546;48.170;11.724;2023-12-29T10:17:40;10.20;99.90
3488;DHT22;38546;48.170;11.724;2023-12-29T10:22:31;10.10;99.90
3488;DHT22;38546;48.170;11.724;2023-12-29T10:25:26;10.10;99.90
3488;DHT22;38546;48.170;11.724;2023-12-29T10:28:16;10.10;99.90
3488;DHT22;38546;48.170;11.724;2023-12-29T10:31:14;10.20;99.90
3488;DHT22;38546;48.170;11.724;2023-12-29T10:34:24;10.10;99.90
3488;DHT22;38546;48.170;11.724;2023-12-29T10:37:22;10.10;99.90
3488;DHT22;38546;48.170;11.724;2023-12-29T10:40:19;10.10;99.90
3488;DHT22;38546;48.170;11.724;2023-12-29T10:43:09;10.00;99.90
3488;DHT22;38546;48.170;11.724;2023-12-29T10:46:06;10.10;99.90
3488;DHT22;38546;48.170;11.724;2023-12-29T10:49:13;10.20;99.90
3488;DHT22;38546;48.170;11.724;2023-12-29T10:52:16;10.20;99.90
3488;DHT22;38546;48.170;11.724;2023-12-29T10:55:10;10.40;99.90
3488;DHT22;38546;48.170;11.724;2023-12-29T10:58:00;10.80;99.90
3488;DHT22;38546;48.170;11.724;2023-12-29T11:00:50;10.80;99.90
3488;DHT22;38546;48.170;11.724;2023-12-29T11:03:39;10.90;99.90
3488;DHT22;38546;48.170;11.724;2023-12-29T11:06:30;11.10;99.90
3488;DHT22;38546;48.170;11.724;2023-12-29T11:09:33;11.20;99.90
3488;DHT22;38546;48.170;11.724;2023-12-29T11:12:25;11.20;99.90
3488;DHT22;38546;48.170;11.724;2023-12-29T11:15:15;11.20;99.90
3488;DHT22;38546;48.170;11.724;2023-12-29T11:18:06;11.20;99.90
3488;DHT22;38546;48.170;11.724;2023-12-29T11:20:56;11.20;99.90
3488;DHT22;38546;48.170;11.724;2023-12-29T11:23:47;11.20;99.90
3488;DHT22;38546;48.170;11.724;2023-12-29T11:26:37;11.40;99.90
3488;DHT22;38546;48.170;11.724;2023-12-29T11:29:27;11.30;99.90
3488;DHT22;38546;48.170;11.724;2023-12-29T11:32:24;11.40;99.90
3488;DHT22;38546;48.170;11.724;2023-12-29T11:35:45;11.50;99.90
3488;DHT22;38546;48.170;11.724;2023-12-29T11:38:54;11.70;99.90
3488;DHT22;38546;48.170;11.724;2023-12-29T11:43:39;11.70;99.90
3488;DHT22;38546;48.170;11.724;2023-12-29T11:46:39;11.70;99.90
3488;DHT22;38546;48.170;11.724;2023-12-29T11:50:00;11.70;99.90
3488;DHT22;38546;48.170;11.724;2023-12-29T11:52:50;11.70;99.90
3488;DHT22;38546;48.170;11.724;2023-12-29T11:55:39;11.70;99.90
3488;DHT22;38546;48.170;11.724;2023-12-29T11:58:29;11.80;99.90
3488;DHT22;38546;48.170;11.724;2023-12-29T12:01:34;11.70;99.90
3488;DHT22;38546;48.170;11.724;2023-12-29T12:04:41;11.80;99.90
3488;DHT22;38546;48.170;11.724;2023-12-29T12:14:53;11.90;99.90
3488;DHT22;38546;48.170;11.724;2023-12-29T12:17:43;11.80;99.90
3488;DHT22;38546;48.170;11.724;2023-12-29T12:20:35;11.90;99.90
3488;DHT22;38546;48.170;11.724;2023-12-29T12:23:26;11.70;99.90
3488;DHT22;38546;48.170;11.724;2023-12-29T12:26:19;11.80;99.90
3488;DHT22;38546;48.170;11.724;2023-12-29T12:29:10;11.90;99.90
3488;DHT22;38546;48.170;11.724;2023-12-29T12:32:02;11.80;99.90
3488;DHT22;38546;48.170;11.724;2023-12-29T12:34:52;11.90;99.90
3488;DHT22;38546;48.170;11.724;2023-12-29T12:37:42;11.90;99.90
3488;DHT22;38546;48.170;11.724;2023-12-29T12:40:31;12.00;99.90
3488;DHT22;38546;48.170;11.724;2023-12-29T12:43:23;11.90;99.90
3488;DHT22;38546;48.170;11.724;2023-12-29T12:46:14;11.90;99.90
3488;DHT22;38546;48.170;11.724;2023-12-29T12:49:04;11.80;99.90
3488;DHT22;38546;48.170;11.724;2023-12-29T12:51:54;11.90;99.90
3488;DHT22;38546;48.170;11.724;2023-12-29T12:54:45;11.80;99.90
3488;DHT22;38546;48.170;11.724;2023-12-29T12:57:36;11.80;99.90
3488;DHT22;38546;48.170;11.724;2023-12-29T13:00:25;11.90;99.90
3488;DHT22;38546;48.170;11.724;2023-12-29T13:03:16;11.90;99.90
3488;DHT22;38546;48.170;11.724;2023-12-29T13:06:06;11.80;99.90
3488;DHT22;38546;48.170;11.724;2023-12-29T13:08:56;11.80;99.90
3488;DHT22;38546;48.170;11.724;2023-12-29T13:11:45;11.90;99.90
3488;DHT22;38546;48.170;11.724;2023-12-29T13:14:35;12.00;99.90
3488;DHT22;38546;48.170;11.724;2023-12-29T13:17:25;12.00;99.90
3488;DHT22;38546;48.170;11.724;2023-12-29T13:20:14;11.90;99.90
3488;DHT22;38546;48.170;11.724;2023-12-29T13:23:03;11.90;99.90
3488;DHT22;38546;48.170;11.724;2023-12-29T13:25:55;11.80;99.90
3488;DHT22;38546;48.170;11.724;2023-12-29T13:28:46;11.80;99.90
3488;DHT22;38546;48.170;11.724;2023-12-29T13:31:36;11.80;99.90
3488;DHT22;38546;48.170;11.724;2023-12-29T13:39:13;11.70;99.90
3488;DHT22;38546;48.170;11.724;2023-12-29T13:42:17;11.60;99.90
3488;DHT22;38546;48.170;11.724;2023-12-29T13:45:09;11.60;99.90
3488;DHT22;38546;48.170;11.724;2023-12-29T13:47:59;11.80;99.90
3488;DHT22;38546;48.170;11.724;2023-12-29T13:50:50;11.90;99.90
3488;DHT22;38546;48.170;11.724;2023-12-29T13:53:40;11.70;99.90
3488;DHT22;38546;48.170;11.724;2023-12-29T13:56:30;11.70;99.90
3488;DHT22;38546;48.170;11.724;2023-12-29T13:59:29;11.70;99.90
3488;DHT22;38546;48.170;11.724;2023-12-29T14:02:31;11.60;99.90
3488;DHT22;38546;48.170;11.724;2023-12-29T14:05:28;11.50;99.90
3488;DHT22;38546;48.170;11.724;2023-12-29T14:08:53;11.60;99.90
3488;DHT22;38546;48.170;11.724;2023-12-29T14:11:46;11.80;99.90
3488;DHT22;38546;48.170;11.724;2023-12-29T14:14:36;11.60;99.90
3488;DHT22;38546;48.170;11.724;2023-12-29T14:17:25;11.60;99.90
3488;DHT22;38546;48.170;11.724;2023-12-29T14:20:32;11.70;99.90
3488;DHT22;38546;48.170;11.724;2023-12-29T14:23:25;11.40;99.90
3488;DHT22;38546;48.170;11.724;2023-12-29T14:26:14;11.50;99.90
3488;DHT22;38546;48.170;11.724;2023-12-29T14:29:09;11.40;99.90
3488;DHT22;38546;48.170;11.724;2023-12-29T14:32:02;11.50;99.90
3488;DHT22;38546;48.170;11.724;2023-12-29T14:34:51;11.40;99.90
3488;DHT22;38546;48.170;11.724;2023-12-29T14:37:45;11.40;99.90
3488;DHT22;38546;48.170;11.724;2023-12-29T14:40:34;11.40;99.90
3488;DHT22;38546;48.170;11.724;2023-12-29T14:43:23;11.30;99.90
3488;DHT22;38546;48.170;11.724;2023-12-29T14:46:13;11.30;99.90
3488;DHT22;38546;48.170;11.724;2023-12-29T14:49:03;11.30;99.90
3488;DHT22;38546;48.170;11.724;2023-12-29T14:51:52;11.20;99.90
3488;DHT22;38546;48.170;11.724;2023-12-29T14:54:42;11.10;99.90
3488;DHT22;38546;48.170;11.724;2023-12-29T14:57:31;11.10;99.90
3488;DHT22;38546;48.170;11.724;2023-12-29T15:00:20;11.20;99.90
3488;DHT22;38546;48.170;11.724;2023-12-29T15:03:10;11.30;99.90
3488;DHT22;38546;48.170;11.724;2023-12-29T15:06:01;11.30;99.90
3488;DHT22;38546;48.170;11.724;2023-12-29T15:08:51;11.30;99.90
3488;DHT22;38546;48.170;11.724;2023-12-29T15:11:40;11.10;99.90
3488;DHT22;38546;48.170;11.724;2023-12-29T15:14:29;11.10;99.90
3488;DHT22;38546;48.170;11.724;2023-12-29T15:17:19;11.10;99.90
3488;DHT22;38546;48.170;11.724;2023-12-29T15:20:10;11.00;99.90
3488;DHT22;38546;48.170;11.724;2023-12-29T15:23:00;10.90;99.90
3488;DHT22;38546;48.170;11.724;2023-12-29T15:25:51;10.90;99.90
3488;DHT22;38546;48.170;11.724;2023-12-29T15:28:40;10.90;99.90
3488;DHT22;38546;48.170;11.724;2023-12-29T15:31:29;10.90;99.90
3488;DHT22;38546;48.170;11.724;2023-12-29T15:34:18;10.80;99.90
3488;DHT22;38546;48.170;11.724;2023-12-29T15:37:07;10.90;99.90
3488;DHT22;38546;48.170;11.724;2023-12-29T15:39:56;10.70;99.90
3488;DHT22;38546;48.170;11.724;2023-12-29T15:42:45;10.70;99.90
3488;DHT22;38546;48.170;11.724;2023-12-29T15:45:35;10.70;99.90
3488;DHT22;38546;48.170;11.724;2023-12-29T15:48:24;10.60;99.90
3488;DHT22;38546;48.170;11.724;2023-12-29T15:51:12;10.60;99.90
3488;DHT22;38546;48.170;11.724;2023-12-29T15:54:02;10.60;99.90
3488;DHT22;38546;48.170;11.724;2023-12-29T15:56:51;10.60;99.90
3488;DHT22;38546;48.170;11.724;2023-12-29T15:59:41;10.50;99.90
3488;DHT22;38546;48.170;11.724;2023-12-29T16:02:30;10.40;99.90
3488;DHT22;38546;48.170;11.724;2023-12-29T16:05:19;10.40;99.90
3488;DHT22;38546;48.170;11.724;2023-12-29T16:08:08;10.40;99.90
3488;DHT22;38546;48.170;11.724;2023-12-29T16:10:57;10.30;99.90
3488;DHT22;38546;48.170;11.724;2023-12-29T16:13:46;10.40;99.90
3488;DHT22;38546;48.170;11.724;2023-12-29T16:16:38;10.40;99.90
3488;DHT22;38546;48.170;11.724;2023-12-29T16:19:27;10.30;99.90
3488;DHT22;38546;48.170;11.724;2023-12-29T16:22:16;10.30;99.90
3488;DHT22;38546;48.170;11.724;2023-12-29T16:25:06;10.30;99.90
3488;DHT22;38546;48.170;11.724;2023-12-29T16:27:55;10.30;99.90
3488;DHT22;38546;48.170;11.724;2023-12-29T16:30:44;10.30;99.90
3488;DHT22;38546;48.170;11.724;2023-12-29T16:33:33;10.20;99.90
3488;DHT22;38546;48.170;11.724;2023-12-29T16:36:25;10.30;99.90
3488;DHT22;38546;48.170;11.724;2023-12-29T16:39:14;10.20;99.90
3488;DHT22;38546;48.170;11.724;2023-12-29T16:42:03;10.10;99.90
3488;DHT22;38546;48.170;11.724;2023-12-29T16:44:52;10.20;99.90
3488;DHT22;38546;48.170;11.724;2023-12-29T16:47:41;10.10;99.90
3488;DHT22;38546;48.170;11.724;2023-12-29T16:50:31;10.00;99.90
3488;DHT22;38546;48.170;11.724;2023-12-29T16:53:20;10.00;99.90
3488;DHT22;38546;48.170;11.724;2023-12-29T16:56:11;10.00;99.90
3488;DHT22;38546;48.170;11.724;2023-12-29T16:59:02;10.00;99.90
3488;DHT22;38546;48.170;11.724;2023-12-29T17:01:51;9.90;99.90
3488;DHT22;38546;48.170;11.724;2023-12-29T17:04:40;9.80;99.90
3488;DHT22;38546;48.170;11.724;2023-12-29T17:07:30;9.90;99.90
3488;DHT22;38546;48.170;11.724;2023-12-29T17:10:19;9.80;99.90
3488;DHT22;38546;48.170;11.724;2023-12-29T17:13:08;9.80;99.90
3488;DHT22;38546;48.170;11.724;2023-12-29T17:15:57;9.80;99.90
3488;DHT22;38546;48.170;11.724;2023-12-29T17:18:46;9.80;99.90
3488;DHT22;38546;48.170;11.724;2023-12-29T17:21:35;9.80;99.90
3488;DHT22;38546;48.170;11.724;2023-12-29T17:24:24;9.80;99.90
3488;DHT22;38546;48.170;11.724;2023-12-29T17:27:13;9.80;99.90
3488;DHT22;38546;48.170;11.724;2023-12-29T17:30:03;9.80;99.90
3488;DHT22;38546;48.170;11.724;2023-12-29T17:32:53;9.80;99.90
3488;DHT22;38546;48.170;11.724;2023-12-29T17:35:42;9.80;99.90
3488;DHT22;38546;48.170;11.724;2023-12-29T17:38:31;9.70;99.90
3488;DHT22;38546;48.170;11.724;2023-12-29T17:41:20;9.70;99.90
3488;DHT22;38546;48.170;11.724;2023-12-29T17:44:08;9.60;99.90
3488;DHT22;38546;48.170;11.724;2023-12-29T17:46:58;9.60;99.90
3488;DHT22;38546;48.170;11.724;2023-12-29T17:49:47;9.60;99.90
3488;DHT22;38546;48.170;11.724;2023-12-29T17:52:37;9.50;99.90
3488;DHT22;38546;48.170;11.724;2023-12-29T17:55:26;9.40;99.90
3488;DHT22;38546;48.170;11.724;2023-12-29T17:58:16;9.40;99.90
3488;DHT22;38546;48.170;11.724;2023-12-29T18:01:04;9.30;99.90
3488;DHT22;38546;48.170;11.724;2023-12-29T18:03:53;9.20;99.90
3488;DHT22;38546;48.170;11.724;2023-12-29T18:06:42;9.20;99.90
3488;DHT22;38546;48.170;11.724;2023-12-29T18:09:32;9.20;99.90
3488;DHT22;38546;48.170;11.724;2023-12-29T18:12:20;9.10;99.90
3488;DHT22;38546;48.170;11.724;2023-12-29T18:15:09;9.10;99.90
3488;DHT22;38546;48.170;11.724;2023-12-29T18:18:03;9.10;99.90
3488;DHT22;38546;48.170;11.724;2023-12-29T18:20:53;9.00;99.90
3488;DHT22;38546;48.170;11.724;2023-12-29T18:23:42;9.00;99.90
3488;DHT22;38546;48.170;11.724;2023-12-29T18:26:32;8.90;99.90